Terminal Aerodrome Forecast
Issued by NWS Melbourne, FL

Home | Current Version | Previous Version | Text Only | Print | Product List | Glossary On
Versions: 1 2 3 4 5 6 7 8 9 10 11 12
000
FTUS42 KMLB 252300
TAFVRB
TAF
KVRB 252331Z 2600/2624 35006KT P6SM FEW040
     FM260200 34005KT P6SM FEW040
     FM261400 36006KT P6SM FEW035
     FM261600 03008KT P6SM FEW040=

USA.gov is the U.S. government's official web portal to all federal, state and local government web resources and services.